Ammie — WDF8286 — position and weather

sailwx.info

Track history (hours):
 
Tides and Currents Weather Stations Pressure Air Temp Water Temp Dewpoint Dewpoint Depression Visibility Wind Speed Wind Dir Waves Ship Positions

Ammie

Owner: Enterprise Marine Services, LLC, San Antonio, TX. More information available from US FCC via Universal Licensing System and Coast Guard Vessel Documentation Center.

Last reported at 2018-Jan-19 13:47 UTC. Time now 2018-Jan-20 03:07 UTC.
Position N 29°58' W 093°52'.

Length 30 m; draft 3 m.

Type: Tug. MMSI: 367448570.

Date/timePositionNaut miles runAvg speedWind from/ knotsBaromVisibWave heightAir tempDewpointWater temp
2018-Jan-19 13:47N 29°58' W 093°52'0 0.0
2018-Jan-19 13:29N 29°58' W 093°52'0 0.0
2018-Jan-19 13:00N 29°58' W 093°52'0 0.0
2018-Jan-19 11:15N 29°58' W 093°52'10 0.4
2018-Jan-18 07:52N 30°03' W 093°43'2 5.3
2018-Jan-18 07:30N 30°04' W 093°40'2 4.3
2018-Jan-18 07:00N 30°04' W 093°38'2 4.7
2018-Jan-18 06:30N 30°04' W 093°35'2 4.4
2018-Jan-18 06:00N 30°04' W 093°33'2 4.5
2018-Jan-18 05:30N 30°04' W 093°30'2 4.4
2018-Jan-18 05:00N 30°04' W 093°28'2 4.7
2018-Jan-18 04:30N 30°04' W 093°25'2 4.5
2018-Jan-18 04:00N 30°04' W 093°22'1 2.9
2018-Jan-18 03:30N 30°04' W 093°21'2 4.0
2018-Jan-18 03:00N 30°06' W 093°19'1 2.1
2018-Jan-18 02:30N 30°06' W 093°18'0 0.0
2018-Jan-18 02:00N 30°06' W 093°18'0 0.0
2018-Jan-18 01:30N 30°06' W 093°18'0 0.0
2018-Jan-18 01:00N 30°06' W 093°18'0 0.0
2018-Jan-18 00:00N 30°06' W 093°18'0 0.1
2018-Jan-17 23:57N 30°06' W 093°18'  
2018-Jan-12 06:28N 29°33' W 090°25'3 5.2
2018-Jan-12 05:55N 29°33' W 090°28'3 6.2
2018-Jan-12 05:31N 29°34' W 090°31'3 6.1
2018-Jan-12 05:00N 29°34' W 090°34'3 5.9
2018-Jan-12 04:30N 29°35' W 090°38'3 5.1
2018-Jan-12 04:00N 29°36' W 090°40'2 4.3
2018-Jan-12 03:30N 29°36' W 090°43'2 4.2
2018-Jan-12 03:00N 29°34' W 090°43'2 3.4
2018-Jan-12 02:30N 29°34' W 090°45'3 5.9
2018-Jan-12 02:00N 29°32' W 090°48'5 7.1
2018-Jan-12 01:17N 29°33' W 090°54'2 6.8
2018-Jan-12 00:59N 29°34' W 090°56'60 2.2
2018-Jan-10 21:29N 29°49' W 092°02'2 3.2
2018-Jan-10 21:01N 29°48' W 092°04'0 0.0
2018-Jan-10 20:31N 29°48' W 092°04'0 0.0
2018-Jan-10 20:00N 29°48' W 092°04'0 0.0
2018-Jan-10 19:31N 29°48' W 092°04'0 0.0
2018-Jan-10 19:00N 29°48' W 092°04'1 2.5
2018-Jan-10 18:29N 29°48' W 092°05'3 5.6
2018-Jan-10 18:00N 29°47' W 092°08'3 5.4
2018-Jan-10 17:30N 29°47' W 092°11'0 0.9
2018-Jan-10 17:00N 29°47' W 092°12'1 2.4
2018-Jan-10 16:30N 29°47' W 092°13'2 4.4
2018-Jan-10 16:00N 29°48' W 092°15'3 5.2
2018-Jan-10 15:30N 29°50' W 092°18'41 2.6
2018-Jan-09 23:43N 29°56' W 093°04'2 5.0
2018-Jan-09 23:22N 29°56' W 093°06'2 4.5
2018-Jan-09 22:56N 29°56' W 093°09'2 4.7
2018-Jan-09 22:30N 29°57' W 093°10'3 5.5
2018-Jan-09 22:00N 29°59' W 093°13'3 5.2
2018-Jan-09 21:30N 30°01' W 093°14'2 4.6
2018-Jan-09 21:00N 30°03' W 093°16'2 4.7
2018-Jan-09 20:30N 30°05' W 093°17'1 1.9
2018-Jan-09 20:00N 30°06' W 093°18'0 0.8
2018-Jan-09 19:30N 30°06' W 093°18'0 0.0
2018-Jan-09 19:00N 30°06' W 093°18'0 0.0
2018-Jan-09 18:30N 30°06' W 093°18'0 0.0
2018-Jan-09 18:00N 30°06' W 093°18'1 1.2
2018-Jan-09 17:30N 30°06' W 093°19'0 0.0
2018-Jan-09 17:00N 30°06' W 093°19'0 0.0
2018-Jan-09 16:30N 30°06' W 093°19'0 0.0
2018-Jan-09 16:00N 30°06' W 093°19'0 0.0
2018-Jan-09 15:30N 30°06' W 093°19'0 0.0
2018-Jan-09 15:00N 30°06' W 093°19'0 0.0
2018-Jan-09 14:30N 30°06' W 093°19'0 0.0
2018-Jan-09 14:00N 30°06' W 093°19'  
Track history (hours):
 
Tides and Currents Weather Stations Pressure Air Temp Water Temp Dewpoint Dewpoint Depression Visibility Wind Speed Wind Dir Waves Ship Positions

Ammie

Owner: Enterprise Marine Services, LLC, San Antonio, TX. More information available from US FCC via Universal Licensing System and Coast Guard Vessel Documentation Center.

Last reported at 2018-Jan-19 13:47 UTC. Time now 2018-Jan-20 03:07 UTC.
Position N 29°58' W 093°52'.

Length 30 m; draft 3 m.

Type: Tug. MMSI: 367448570.

Date/timePositionNaut miles runAvg speedWind from/ knotsBaromVisibWave heightAir tempDewpointWater temp
2018-Jan-19 13:47N 29°58' W 093°52'0 0.0
2018-Jan-19 13:29N 29°58' W 093°52'0 0.0
2018-Jan-19 13:00N 29°58' W 093°52'0 0.0
2018-Jan-19 11:15N 29°58' W 093°52'10 0.4
2018-Jan-18 07:52N 30°03' W 093°43'2 5.3
2018-Jan-18 07:30N 30°04' W 093°40'2 4.3
2018-Jan-18 07:00N 30°04' W 093°38'2 4.7
2018-Jan-18 06:30N 30°04' W 093°35'2 4.4
2018-Jan-18 06:00N 30°04' W 093°33'2 4.5
2018-Jan-18 05:30N 30°04' W 093°30'2 4.4
2018-Jan-18 05:00N 30°04' W 093°28'2 4.7
2018-Jan-18 04:30N 30°04' W 093°25'2 4.5
2018-Jan-18 04:00N 30°04' W 093°22'1 2.9
2018-Jan-18 03:30N 30°04' W 093°21'2 4.0
2018-Jan-18 03:00N 30°06' W 093°19'1 2.1
2018-Jan-18 02:30N 30°06' W 093°18'0 0.0
2018-Jan-18 02:00N 30°06' W 093°18'0 0.0
2018-Jan-18 01:30N 30°06' W 093°18'0 0.0
2018-Jan-18 01:00N 30°06' W 093°18'0 0.0
2018-Jan-18 00:00N 30°06' W 093°18'0 0.1
2018-Jan-17 23:57N 30°06' W 093°18'  
2018-Jan-12 06:28N 29°33' W 090°25'3 5.2
2018-Jan-12 05:55N 29°33' W 090°28'3 6.2
2018-Jan-12 05:31N 29°34' W 090°31'3 6.1
2018-Jan-12 05:00N 29°34' W 090°34'3 5.9
2018-Jan-12 04:30N 29°35' W 090°38'3 5.1
2018-Jan-12 04:00N 29°36' W 090°40'2 4.3
2018-Jan-12 03:30N 29°36' W 090°43'2 4.2
2018-Jan-12 03:00N 29°34' W 090°43'2 3.4
2018-Jan-12 02:30N 29°34' W 090°45'3 5.9
2018-Jan-12 02:00N 29°32' W 090°48'5 7.1
2018-Jan-12 01:17N 29°33' W 090°54'2 6.8
2018-Jan-12 00:59N 29°34' W 090°56'60 2.2
2018-Jan-10 21:29N 29°49' W 092°02'2 3.2
2018-Jan-10 21:01N 29°48' W 092°04'0 0.0
2018-Jan-10 20:31N 29°48' W 092°04'0 0.0
2018-Jan-10 20:00N 29°48' W 092°04'0 0.0
2018-Jan-10 19:31N 29°48' W 092°04'0 0.0
2018-Jan-10 19:00N 29°48' W 092°04'1 2.5
2018-Jan-10 18:29N 29°48' W 092°05'3 5.6
2018-Jan-10 18:00N 29°47' W 092°08'3 5.4
2018-Jan-10 17:30N 29°47' W 092°11'0 0.9
2018-Jan-10 17:00N 29°47' W 092°12'1 2.4
2018-Jan-10 16:30N 29°47' W 092°13'2 4.4
2018-Jan-10 16:00N 29°48' W 092°15'3 5.2
2018-Jan-10 15:30N 29°50' W 092°18'41 2.6
2018-Jan-09 23:43N 29°56' W 093°04'2 5.0
2018-Jan-09 23:22N 29°56' W 093°06'2 4.5
2018-Jan-09 22:56N 29°56' W 093°09'2 4.7
2018-Jan-09 22:30N 29°57' W 093°10'3 5.5
2018-Jan-09 22:00N 29°59' W 093°13'3 5.2
2018-Jan-09 21:30N 30°01' W 093°14'2 4.6
2018-Jan-09 21:00N 30°03' W 093°16'2 4.7
2018-Jan-09 20:30N 30°05' W 093°17'1 1.9
2018-Jan-09 20:00N 30°06' W 093°18'0 0.8
2018-Jan-09 19:30N 30°06' W 093°18'0 0.0
2018-Jan-09 19:00N 30°06' W 093°18'0 0.0
2018-Jan-09 18:30N 30°06' W 093°18'0 0.0
2018-Jan-09 18:00N 30°06' W 093°18'1 1.2
2018-Jan-09 17:30N 30°06' W 093°19'0 0.0
2018-Jan-09 17:00N 30°06' W 093°19'0 0.0
2018-Jan-09 16:30N 30°06' W 093°19'0 0.0
2018-Jan-09 16:00N 30°06' W 093°19'0 0.0
2018-Jan-09 15:30N 30°06' W 093°19'0 0.0
2018-Jan-09 15:00N 30°06' W 093°19'0 0.0
2018-Jan-09 14:30N 30°06' W 093°19'0 0.0
2018-Jan-09 14:00N 30°06' W 093°19'  

Dump ship's entire track history